createdAt,value
2018-12-06T00:01:34.917Z,6.70
2018-12-06T00:05:43.746Z,8.20
2018-12-06T00:09:57.971Z,8.27
2018-12-06T00:14:03.069Z,10.47
2018-12-06T00:18:06.597Z,8.30
2018-12-06T00:22:11.274Z,9.07
2018-12-06T00:26:16.460Z,6.90
2018-12-06T00:30:25.810Z,8.10
2018-12-06T00:34:30.311Z,7.10
2018-12-06T00:38:34.330Z,8.37
2018-12-06T00:42:38.837Z,9.37
2018-12-06T00:46:43.158Z,7.37
2018-12-06T00:50:48.636Z,7.97
2018-12-06T00:54:52.485Z,5.83
2018-12-06T00:58:56.175Z,6.90
2018-12-06T01:03:04.860Z,7.60
2018-12-06T01:07:08.960Z,8.60
2018-12-06T01:11:12.745Z,7.87
2018-12-06T01:15:16.720Z,8.30
2018-12-06T01:19:22.469Z,8.57
2018-12-06T01:23:27.402Z,7.33
2018-12-06T01:27:30.289Z,9.20
2018-12-06T01:31:35.119Z,7.03
2018-12-06T01:35:37.644Z,5.53
2018-12-06T01:39:42.450Z,8.50
2018-12-06T01:43:50.964Z,10.63
2018-12-06T01:47:55.344Z,6.27
2018-12-06T01:51:59.656Z,7.60
2018-12-06T01:56:01.875Z,9.60
2018-12-06T02:00:10.844Z,8.67
2018-12-06T02:04:15.111Z,8.60
2018-12-06T02:08:17.512Z,8.70
2018-12-06T02:12:22.757Z,11.70
2018-12-06T02:16:27.179Z,11.17
2018-12-06T02:20:31.271Z,11.70
2018-12-06T02:24:35.273Z,8.20
2018-12-06T02:28:39.683Z,9.73
2018-12-06T02:32:47.614Z,9.10
2018-12-06T02:36:51.967Z,11.83
2018-12-06T02:40:57.003Z,7.50
2018-12-06T02:45:02.086Z,8.73
2018-12-06T02:49:06.943Z,7.07
2018-12-06T02:53:10.275Z,9.10
2018-12-06T02:57:13.694Z,7.97
2018-12-06T03:05:36.164Z,8.50
2018-12-06T03:09:38.606Z,13.17
2018-12-06T03:13:40.755Z,8.20
2018-12-06T03:17:48.456Z,9.57
2018-12-06T03:21:52.804Z,14.77
2018-12-06T03:25:56.799Z,14.67
2018-12-06T03:30:03.071Z,12.23
2018-12-06T03:34:07.279Z,13.43
2018-12-06T03:38:15.711Z,10.03
2018-12-06T03:42:20.018Z,12.43
2018-12-06T03:46:23.935Z,15.00
2018-12-06T03:50:27.044Z,14.20
2018-12-06T03:54:31.421Z,16.13
2018-12-06T03:58:45.042Z,14.23
2018-12-06T04:02:52.429Z,13.33
2018-12-06T04:06:55.679Z,14.57
2018-12-06T04:11:04.530Z,17.40
2018-12-06T04:15:09.010Z,13.83
2018-12-06T04:19:16.228Z,14.73
2018-12-06T04:23:20.868Z,16.93
2018-12-06T04:27:25.255Z,13.83
2018-12-06T04:31:29.792Z,18.97
2018-12-06T04:35:32.583Z,13.87
2018-12-06T04:44:03.691Z,14.73
2018-12-06T04:48:08.280Z,17.23
2018-12-06T04:52:10.966Z,16.30
2018-12-06T04:56:15.444Z,12.40
2018-12-06T05:00:20.931Z,14.63
2018-12-06T05:04:25.399Z,12.47
2018-12-06T05:08:29.400Z,12.83
2018-12-06T05:12:37.152Z,19.77
2018-12-06T05:16:40.713Z,13.37
2018-12-06T05:20:52.639Z,11.47
2018-12-06T05:24:57.190Z,12.57
2018-12-06T05:29:01.040Z,14.60
2018-12-06T05:33:05.145Z,16.37
2018-12-06T05:37:09.786Z,21.60
2018-12-06T05:41:13.727Z,18.23
2018-12-06T05:45:17.799Z,18.10
2018-12-06T05:49:22.436Z,14.80
2018-12-06T05:53:26.619Z,17.83
2018-12-06T05:57:30.569Z,14.83
2018-12-06T06:01:33.744Z,19.33
2018-12-06T06:05:35.982Z,20.93
2018-12-06T06:09:39.684Z,18.67
2018-12-06T06:13:46.927Z,16.67
2018-12-06T06:17:52.525Z,19.30
2018-12-06T06:21:56.755Z,13.67
2018-12-06T06:26:01.644Z,16.50
2018-12-06T06:30:08.844Z,16.93
2018-12-06T06:34:13.152Z,14.57
2018-12-06T06:38:20.813Z,17.37
2018-12-06T06:42:28.590Z,14.50
2018-12-06T06:46:34.857Z,16.13
2018-12-06T06:50:39.055Z,14.33
2018-12-06T06:54:53.957Z,15.87
2018-12-06T06:58:58.648Z,16.00
2018-12-06T07:03:02.848Z,14.17
2018-12-06T07:07:06.686Z,17.33
2018-12-06T07:11:13.480Z,14.53
2018-12-06T07:15:17.416Z,16.57
2018-12-06T07:19:24.902Z,16.20
2018-12-06T07:23:28.752Z,17.23
2018-12-06T07:27:33.098Z,17.23
2018-12-06T07:31:37.433Z,16.50
2018-12-06T07:35:44.574Z,15.50
2018-12-06T07:39:49.393Z,17.07
2018-12-06T07:43:52.755Z,15.90
2018-12-06T07:47:55.404Z,18.40
2018-12-06T07:52:01.611Z,18.27
2018-12-06T07:56:04.650Z,18.93
2018-12-06T08:00:10.881Z,19.47
2018-12-06T08:04:29.044Z,24.17
2018-12-06T08:08:32.693Z,23.10
2018-12-06T08:12:36.631Z,22.50
2018-12-06T08:16:40.563Z,26.33
2018-12-06T08:20:45.371Z,29.80
2018-12-06T08:24:49.035Z,25.17
2018-12-06T08:28:54.653Z,26.43
2018-12-06T08:33:00.424Z,23.50
2018-12-06T08:37:03.975Z,22.07
2018-12-06T08:41:08.697Z,23.57
2018-12-06T08:45:15.539Z,24.80
2018-12-06T08:49:19.424Z,26.40
2018-12-06T08:53:23.432Z,25.90
2018-12-06T08:57:25.739Z,26.40
2018-12-06T09:01:34.026Z,25.00
2018-12-06T09:05:44.686Z,22.10
2018-12-06T09:09:47.610Z,22.10
2018-12-06T09:13:51.735Z,20.10
2018-12-06T09:17:55.630Z,61.43
2018-12-06T09:22:02.469Z,24.03
2018-12-06T09:26:04.562Z,23.53
2018-12-06T09:30:13.212Z,21.07
2018-12-06T09:34:16.887Z,30.53
2018-12-06T09:38:20.708Z,24.40
2018-12-06T09:42:24.827Z,22.10
2018-12-06T09:46:28.940Z,24.87
2018-12-06T09:50:33.118Z,24.60
2018-12-06T09:54:37.907Z,29.63
2018-12-06T09:58:41.885Z,25.03
2018-12-06T10:02:46.184Z,23.57
2018-12-06T10:06:50.389Z,24.90
2018-12-06T10:10:58.245Z,27.47
2018-12-06T10:15:02.297Z,23.00
2018-12-06T10:19:06.990Z,30.70
2018-12-06T10:23:11.146Z,27.60
2018-12-06T10:27:16.865Z,26.00
2018-12-06T10:31:20.875Z,26.83
2018-12-06T10:35:25.414Z,29.70
2018-12-06T10:39:27.456Z,30.90
2018-12-06T10:43:32.244Z,27.40
2018-12-06T10:47:35.989Z,25.77
2018-12-06T10:56:03.449Z,23.53
2018-12-06T11:00:09.417Z,23.67
2018-12-06T11:04:12.701Z,25.77
2018-12-06T11:08:22.419Z,23.17
2018-12-06T11:12:25.960Z,25.37
2018-12-06T11:16:30.531Z,23.10
2018-12-06T11:20:34.128Z,26.73
2018-12-06T11:24:37.929Z,24.20
2018-12-06T11:28:45.706Z,25.57
2018-12-06T11:32:52.577Z,23.70
2018-12-06T11:36:57.025Z,25.40
2018-12-06T11:41:00.769Z,18.30
2018-12-06T11:45:04.769Z,22.67
2018-12-06T11:49:08.806Z,21.90
2018-12-06T11:53:16.585Z,25.53
2018-12-06T11:57:25.452Z,19.20
2018-12-06T12:01:29.430Z,23.63
2018-12-06T12:05:35.369Z,21.30
2018-12-06T12:09:49.498Z,22.47
2018-12-06T12:13:53.382Z,19.00
2018-12-06T12:17:57.858Z,18.00
2018-12-06T12:22:00.401Z,19.87
2018-12-06T12:26:02.512Z,19.80
2018-12-06T12:30:09.507Z,21.77
2018-12-06T12:34:12.976Z,16.60
2018-12-06T12:38:17.004Z,18.10
2018-12-06T12:42:22.054Z,23.47
2018-12-06T12:46:26.689Z,14.87
2018-12-06T12:50:31.733Z,12.73
2018-12-06T12:54:35.939Z,14.43
2018-12-06T12:58:41.897Z,17.13
2018-12-06T13:02:45.536Z,10.97
2018-12-06T13:06:47.568Z,14.47
2018-12-06T13:10:51.028Z,12.57
2018-12-06T13:14:55.154Z,13.43
2018-12-06T13:18:58.783Z,17.70
2018-12-06T13:23:04.810Z,17.70
2018-12-06T13:27:12.532Z,14.10
2018-12-06T13:31:15.688Z,11.63
2018-12-06T13:35:23.190Z,12.03
2018-12-06T13:39:30.311Z,15.70
2018-12-06T13:43:34.511Z,15.80
2018-12-06T13:47:41.511Z,14.93
2018-12-06T13:51:44.834Z,21.93
2018-12-06T13:55:46.621Z,12.97
2018-12-06T13:59:54.491Z,16.47
2018-12-06T14:04:00.042Z,17.30
2018-12-06T14:08:05.178Z,15.70
2018-12-06T14:12:09.747Z,14.70
2018-12-06T14:16:12.443Z,18.20
2018-12-06T14:20:16.242Z,13.60
2018-12-06T14:24:20.361Z,16.33
2018-12-06T14:28:26.114Z,14.30
2018-12-06T14:32:30.766Z,13.57
2018-12-06T14:36:33.568Z,14.70
2018-12-06T14:40:35.538Z,16.57
2018-12-06T14:44:43.541Z,17.80
2018-12-06T14:48:47.255Z,10.90
2018-12-06T14:52:50.854Z,20.40
2018-12-06T14:56:56.051Z,15.37
2018-12-06T15:00:59.287Z,17.63
2018-12-06T15:05:02.722Z,18.53
2018-12-06T15:09:09.922Z,17.33
2018-12-06T15:13:13.719Z,12.90
2018-12-06T15:17:17.759Z,21.50
2018-12-06T15:21:23.257Z,16.60
2018-12-06T15:25:28.283Z,17.50
2018-12-06T15:29:33.312Z,15.97
2018-12-06T15:33:41.453Z,12.47
2018-12-06T15:37:46.796Z,11.57
2018-12-06T15:42:00.914Z,14.57
2018-12-06T15:46:05.695Z,13.70
2018-12-06T15:50:21.767Z,9.30
2018-12-06T15:54:25.946Z,13.43
2018-12-06T15:58:31.743Z,12.93
2018-12-06T16:02:38.316Z,9.97
2018-12-06T16:06:43.905Z,9.97
2018-12-06T16:10:52.134Z,9.77
2018-12-06T16:14:55.274Z,12.30
2018-12-06T16:18:58.933Z,10.90
2018-12-06T16:23:03.204Z,11.40
2018-12-06T16:27:09.519Z,15.23
2018-12-06T16:31:14.374Z,9.70
2018-12-06T16:35:18.640Z,17.27
2018-12-06T16:39:23.719Z,9.97
2018-12-06T16:43:27.817Z,8.80
2018-12-06T16:47:35.641Z,7.63
2018-12-06T16:51:39.504Z,12.27
2018-12-06T16:55:43.148Z,8.20
2018-12-06T16:59:54.400Z,10.27
2018-12-06T17:03:58.330Z,11.57
2018-12-06T17:08:06.422Z,11.30
2018-12-06T17:12:12.363Z,7.00
2018-12-06T17:16:13.669Z,10.37
2018-12-06T17:20:17.297Z,9.17
2018-12-06T17:24:24.711Z,10.00
2018-12-06T17:28:32.340Z,11.37
2018-12-06T17:32:49.359Z,9.30
2018-12-06T17:36:55.104Z,10.30
2018-12-06T17:40:57.655Z,9.57
2018-12-06T17:45:06.295Z,8.03
2018-12-06T17:54:26.819Z,9.70
2018-12-06T17:58:32.278Z,8.87
2018-12-06T18:02:37.643Z,7.50
2018-12-06T18:06:54.003Z,10.00
2018-12-06T18:11:03.047Z,11.47
2018-12-06T18:15:10.272Z,7.00
2018-12-06T18:19:14.961Z,6.67
2018-12-06T18:23:19.217Z,12.60
2018-12-06T18:27:22.397Z,7.07
2018-12-06T18:31:27.878Z,8.70
2018-12-06T18:35:32.650Z,6.47
2018-12-06T18:39:37.072Z,8.47
2018-12-06T18:43:45.822Z,18.47
2018-12-06T18:47:50.227Z,8.73
2018-12-06T18:51:54.386Z,9.20
2018-12-06T18:56:01.669Z,6.60
2018-12-06T19:00:13.680Z,8.20
2018-12-06T19:04:18.084Z,10.97
2018-12-06T19:12:50.153Z,10.10
2018-12-06T19:16:54.770Z,11.13
2018-12-06T19:20:59.620Z,11.83
2018-12-06T19:25:04.128Z,14.93
2018-12-06T19:29:12.512Z,12.17
2018-12-06T19:33:17.124Z,11.27
2018-12-06T19:37:21.282Z,12.17
2018-12-06T19:41:26.225Z,12.30
2018-12-06T19:45:38.636Z,10.37
2018-12-06T19:49:44.185Z,9.63
2018-12-06T19:58:12.746Z,22.50
2018-12-06T20:02:16.647Z,11.90
2018-12-06T20:06:18.784Z,13.43
2018-12-06T20:10:23.595Z,14.67
2018-12-06T20:14:27.439Z,11.17
2018-12-06T20:18:30.834Z,11.80
2018-12-06T20:22:37.871Z,10.13
2018-12-06T20:26:44.951Z,12.80
2018-12-06T20:30:46.837Z,10.10
2018-12-06T20:34:50.842Z,10.23
2018-12-06T20:38:59.575Z,12.17
2018-12-06T20:43:05.972Z,10.30
2018-12-06T20:47:16.641Z,11.37
2018-12-06T20:51:20.550Z,10.53
2018-12-06T20:55:24.183Z,13.63
2018-12-06T20:59:27.713Z,13.00
2018-12-06T21:03:31.696Z,10.47
2018-12-06T21:07:39.533Z,14.33
2018-12-06T21:11:48.071Z,10.83
2018-12-06T21:15:51.863Z,14.03
2018-12-06T21:24:36.995Z,11.37
2018-12-06T21:28:44.834Z,12.10
2018-12-06T21:32:49.759Z,11.53
2018-12-06T21:36:55.323Z,10.50
2018-12-06T21:40:59.861Z,9.73
2018-12-06T21:45:09.207Z,11.40
2018-12-06T21:49:29.163Z,10.33
2018-12-06T21:53:38.065Z,9.13
2018-12-06T21:57:41.598Z,13.20
2018-12-06T22:01:45.812Z,9.97
2018-12-06T22:05:48.990Z,10.23
2018-12-06T22:09:53.538Z,9.53
2018-12-06T22:13:56.648Z,9.70
2018-12-06T22:18:00.190Z,8.93
2018-12-06T22:22:06.335Z,9.03
2018-12-06T22:26:10.212Z,10.03
2018-12-06T22:30:14.361Z,9.87
2018-12-06T22:34:18.402Z,10.37
2018-12-06T22:38:22.122Z,12.20
2018-12-06T22:42:25.361Z,9.97
2018-12-06T22:46:27.361Z,11.67
2018-12-06T22:50:33.851Z,9.57
2018-12-06T22:54:37.316Z,9.30
2018-12-06T22:58:45.187Z,9.20
2018-12-06T23:02:49.418Z,8.37
2018-12-06T23:06:51.989Z,9.60
2018-12-06T23:10:56.381Z,11.73
2018-12-06T23:14:58.611Z,9.30
2018-12-06T23:19:07.029Z,12.10
2018-12-06T23:23:08.749Z,10.80
2018-12-06T23:27:12.687Z,9.20
2018-12-06T23:31:20.672Z,8.03
2018-12-06T23:35:25.085Z,6.90
2018-12-06T23:39:29.074Z,9.63
2018-12-06T23:43:32.733Z,9.17
2018-12-06T23:47:37.530Z,8.63
2018-12-06T23:51:41.469Z,7.30
2018-12-06T23:55:45.556Z,10.33
2018-12-06T23:59:49.201Z,8.70
